TAM3491 SBFZ-SBRF
Flight info
| Callsign | TAM3491 |
|---|---|
| Flight time | 1h 5m |
| Altitude | 35000 |
| Route | UTMAR UZ70 UGTUN |
| Aircraft | A319/M-SDE3FGHIRWY/LB1 |
Departure
| Time | 2026-05-05 02:37 |
|---|---|
| Airport | Pinto Martins International Airport (SBFZ) |
Arrival
| Time | 2026-05-05 03:43 |
|---|---|
| Airport | Recife/Guararapes - Gilberto Freyre International Airport (SBRF) |
| Time | Latitude | Longitude | Altitude | Speed | Heading |
|---|---|---|---|---|---|
| 2026-05-05 02:08 | -3.77831 | -38.53928 | 92 ft | 0 kts | 218° |
| 2026-05-05 02:29 | -3.77823 | -38.53922 | 93 ft | 3 kts | 219° |
| 2026-05-05 02:29 | -3.77805 | -38.53907 | 94 ft | 3 kts | 224° |
| 2026-05-05 02:29 | -3.77789 | -38.53889 | 92 ft | 3 kts | 237° |
| 2026-05-05 02:30 | -3.77781 | -38.53870 | 91 ft | 3 kts | 278° |
| 2026-05-05 02:30 | -3.77784 | -38.53860 | 93 ft | 0 kts | 307° |
| 2026-05-05 02:32 | -3.77780 | -38.53865 | 91 ft | 2 kts | 307° |
| 2026-05-05 02:32 | -3.77769 | -38.53880 | 92 ft | 3 kts | 307° |
| 2026-05-05 02:33 | -3.77749 | -38.53908 | 94 ft | 7 kts | 303° |
| 2026-05-05 02:33 | -3.77719 | -38.53961 | 95 ft | 11 kts | 295° |
| 2026-05-05 02:33 | -3.77691 | -38.54046 | 92 ft | 14 kts | 284° |
| 2026-05-05 02:33 | -3.77666 | -38.54144 | 95 ft | 15 kts | 284° |
| 2026-05-05 02:34 | -3.77640 | -38.54241 | 93 ft | 14 kts | 285° |
| 2026-05-05 02:34 | -3.77613 | -38.54339 | 93 ft | 14 kts | 288° |
| 2026-05-05 02:34 | -3.77532 | -38.54380 | 93 ft | 14 kts | 350° |
| 2026-05-05 02:34 | -3.77439 | -38.54377 | 95 ft | 11 kts | 13° |
| 2026-05-05 02:35 | -3.77434 | -38.54376 | 96 ft | 0 kts | 13° |
| 2026-05-05 02:36 | -3.77430 | -38.54375 | 95 ft | 3 kts | 13° |
| 2026-05-05 02:36 | -3.77395 | -38.54366 | 95 ft | 7 kts | 13° |
| 2026-05-05 02:36 | -3.77349 | -38.54343 | 98 ft | 8 kts | 71° |
| 2026-05-05 02:36 | -3.77352 | -38.54307 | 99 ft | 8 kts | 105° |
| 2026-05-05 02:37 | -3.77382 | -38.54196 | 98 ft | 42 kts | 105° |
| 2026-05-05 02:37 | -3.77597 | -38.53390 | 91 ft | 133 kts | 105° |
| 2026-05-05 02:37 | -3.77875 | -38.52361 | 308 ft | 162 kts | 107° |
| 2026-05-05 02:37 | -3.78190 | -38.51268 | 934 ft | 164 kts | 107° |
| 2026-05-05 02:38 | -3.78504 | -38.50162 | 1550 ft | 170 kts | 106° |
| 2026-05-05 02:38 | -3.78725 | -38.49373 | 1762 ft | 184 kts | 106° |
| 2026-05-05 02:38 | -3.79098 | -38.48062 | 2053 ft | 208 kts | 109° |
| 2026-05-05 02:38 | -3.79991 | -38.46840 | 2388 ft | 236 kts | 144° |
| 2026-05-05 02:39 | -3.81514 | -38.46070 | 3020 ft | 253 kts | 158° |
| 2026-05-05 02:39 | -3.83191 | -38.45512 | 4001 ft | 255 kts | 162° |
| 2026-05-05 02:39 | -3.84890 | -38.45006 | 5032 ft | 254 kts | 162° |
| 2026-05-05 02:39 | -3.86600 | -38.44483 | 5691 ft | 259 kts | 161° |
| 2026-05-05 02:40 | -3.88882 | -38.43726 | 6487 ft | 261 kts | 159° |
| 2026-05-05 02:40 | -3.90043 | -38.43318 | 7098 ft | 262 kts | 159° |
| 2026-05-05 02:40 | -3.91763 | -38.42700 | 7908 ft | 268 kts | 158° |
| 2026-05-05 02:40 | -3.93537 | -38.42050 | 8696 ft | 275 kts | 158° |
| 2026-05-05 02:41 | -3.95371 | -38.41412 | 9450 ft | 284 kts | 163° |
| 2026-05-05 02:41 | -3.97340 | -38.41014 | 10154 ft | 294 kts | 166° |
| 2026-05-05 02:41 | -3.99432 | -38.40606 | 10429 ft | 317 kts | 166° |
| 2026-05-05 02:41 | -4.01625 | -38.40181 | 10912 ft | 330 kts | 166° |
| 2026-05-05 02:42 | -4.03897 | -38.39742 | 11594 ft | 335 kts | 166° |
| 2026-05-05 02:42 | -4.06224 | -38.39292 | 12061 ft | 349 kts | 167° |
| 2026-05-05 02:42 | -4.08677 | -38.38814 | 12318 ft | 366 kts | 167° |
| 2026-05-05 02:42 | -4.11210 | -38.38322 | 12877 ft | 373 kts | 167° |
| 2026-05-05 02:43 | -4.13774 | -38.37828 | 13500 ft | 377 kts | 167° |
| 2026-05-05 02:43 | -4.16373 | -38.37330 | 14084 ft | 381 kts | 167° |
| 2026-05-05 02:43 | -4.18993 | -38.36827 | 14645 ft | 385 kts | 167° |
| 2026-05-05 02:43 | -4.21642 | -38.36316 | 15190 ft | 389 kts | 167° |
| 2026-05-05 02:44 | -4.24274 | -38.35806 | 15721 ft | 392 kts | 167° |
| 2026-05-05 02:44 | -4.26979 | -38.35281 | 16255 ft | 396 kts | 167° |
| 2026-05-05 02:44 | -4.29703 | -38.34752 | 16788 ft | 400 kts | 167° |
| 2026-05-05 02:44 | -4.32445 | -38.34219 | 17312 ft | 403 kts | 167° |
| 2026-05-05 02:45 | -4.35216 | -38.33680 | 17824 ft | 407 kts | 167° |
| 2026-05-05 02:45 | -4.38011 | -38.33138 | 18328 ft | 411 kts | 167° |
| 2026-05-05 02:45 | -4.40798 | -38.32597 | 18769 ft | 414 kts | 167° |
| 2026-05-05 02:45 | -4.43642 | -38.32045 | 19229 ft | 417 kts | 167° |
| 2026-05-05 02:46 | -4.46499 | -38.31492 | 19665 ft | 420 kts | 167° |
| 2026-05-05 02:46 | -4.49380 | -38.30927 | 20088 ft | 422 kts | 166° |
| 2026-05-05 02:46 | -4.52188 | -38.30059 | 20499 ft | 423 kts | 156° |
| 2026-05-05 02:46 | -4.54796 | -38.28690 | 20898 ft | 424 kts | 145° |
| 2026-05-05 02:47 | -4.57142 | -38.26890 | 21308 ft | 425 kts | 139° |
| 2026-05-05 02:47 | -4.59404 | -38.25014 | 21706 ft | 428 kts | 139° |
| 2026-05-05 02:47 | -4.61708 | -38.23109 | 22085 ft | 431 kts | 139° |
| 2026-05-05 02:47 | -4.64031 | -38.21196 | 22452 ft | 434 kts | 139° |
| 2026-05-05 02:48 | -4.66377 | -38.19270 | 22816 ft | 436 kts | 139° |
| 2026-05-05 02:48 | -4.68738 | -38.17335 | 23169 ft | 439 kts | 140° |
| 2026-05-05 02:48 | -4.71108 | -38.15393 | 23518 ft | 441 kts | 139° |
| 2026-05-05 02:48 | -4.73492 | -38.13435 | 23806 ft | 444 kts | 140° |
| 2026-05-05 02:49 | -4.75887 | -38.11466 | 24097 ft | 446 kts | 140° |
| 2026-05-05 02:49 | -4.78297 | -38.09484 | 24376 ft | 448 kts | 140° |
| 2026-05-05 02:49 | -4.80712 | -38.07497 | 24655 ft | 450 kts | 140° |
| 2026-05-05 02:49 | -4.83145 | -38.05496 | 24933 ft | 452 kts | 140° |
| 2026-05-05 02:50 | -4.85583 | -38.03491 | 25208 ft | 454 kts | 140° |
| 2026-05-05 02:50 | -4.88003 | -38.01500 | 25470 ft | 456 kts | 140° |
| 2026-05-05 02:50 | -4.90460 | -37.99478 | 25738 ft | 458 kts | 141° |
| 2026-05-05 02:50 | -4.92934 | -37.97442 | 25993 ft | 460 kts | 141° |
| 2026-05-05 02:51 | -4.95413 | -37.95400 | 26245 ft | 462 kts | 141° |
| 2026-05-05 02:51 | -4.97907 | -37.93342 | 26500 ft | 464 kts | 141° |
| 2026-05-05 02:51 | -5.00406 | -37.91281 | 26750 ft | 466 kts | 141° |
| 2026-05-05 02:51 | -5.02918 | -37.89214 | 26995 ft | 468 kts | 141° |
| 2026-05-05 02:52 | -5.05441 | -37.87140 | 27233 ft | 470 kts | 141° |
| 2026-05-05 02:52 | -5.07951 | -37.85076 | 27465 ft | 472 kts | 141° |
| 2026-05-05 02:52 | -5.10499 | -37.82980 | 27695 ft | 474 kts | 141° |
| 2026-05-05 02:52 | -5.13056 | -37.80875 | 27929 ft | 475 kts | 141° |
| 2026-05-05 02:53 | -5.15621 | -37.78760 | 28168 ft | 477 kts | 142° |
| 2026-05-05 02:53 | -5.18195 | -37.76640 | 28408 ft | 479 kts | 142° |
| 2026-05-05 02:53 | -5.20773 | -37.74518 | 28622 ft | 480 kts | 142° |
| 2026-05-05 02:53 | -5.23330 | -37.72410 | 28836 ft | 482 kts | 142° |
| 2026-05-05 02:54 | -5.25931 | -37.70266 | 29055 ft | 484 kts | 142° |
| 2026-05-05 02:54 | -5.28536 | -37.68120 | 29254 ft | 485 kts | 142° |
| 2026-05-05 02:54 | -5.31144 | -37.65969 | 29541 ft | 485 kts | 142° |
| 2026-05-05 02:54 | -5.33748 | -37.63819 | 29863 ft | 484 kts | 142° |
| 2026-05-05 02:55 | -5.36356 | -37.61667 | 30152 ft | 484 kts | 142° |
| 2026-05-05 02:55 | -5.38956 | -37.59522 | 30413 ft | 484 kts | 142° |
| 2026-05-05 02:55 | -5.41555 | -37.57382 | 30694 ft | 483 kts | 142° |
| 2026-05-05 02:55 | -5.44148 | -37.55247 | 30999 ft | 482 kts | 142° |
| 2026-05-05 02:56 | -5.46747 | -37.53106 | 31307 ft | 481 kts | 142° |
| 2026-05-05 02:56 | -5.49300 | -37.50999 | 31609 ft | 480 kts | 142° |
| 2026-05-05 02:56 | -5.51877 | -37.48872 | 31920 ft | 479 kts | 142° |
| 2026-05-05 02:56 | -5.54450 | -37.46750 | 32237 ft | 478 kts | 142° |
| 2026-05-05 02:57 | -5.57026 | -37.44628 | 32559 ft | 477 kts | 142° |
| 2026-05-05 02:57 | -5.57896 | -37.43911 | 32668 ft | 477 kts | 142° |
| 2026-05-05 02:57 | -5.59135 | -37.42890 | 32834 ft | 477 kts | 142° |
| 2026-05-05 02:57 | -5.61697 | -37.40775 | 33156 ft | 476 kts | 142° |
| 2026-05-05 02:58 | -5.64251 | -37.38664 | 33497 ft | 475 kts | 142° |
| 2026-05-05 02:58 | -5.66800 | -37.36555 | 33845 ft | 474 kts | 142° |
| 2026-05-05 02:58 | -5.69323 | -37.34469 | 34170 ft | 474 kts | 143° |
| 2026-05-05 02:58 | -5.71864 | -37.32367 | 34472 ft | 473 kts | 143° |
| 2026-05-05 02:59 | -5.74404 | -37.30269 | 34760 ft | 472 kts | 143° |
| 2026-05-05 02:59 | -5.76946 | -37.28174 | 34959 ft | 473 kts | 143° |
| 2026-05-05 02:59 | -5.79491 | -37.26074 | 35004 ft | 473 kts | 143° |
| 2026-05-05 03:00 | -5.84586 | -37.21865 | 35018 ft | 473 kts | 143° |
| 2026-05-05 03:00 | -5.89677 | -37.17663 | 35013 ft | 474 kts | 143° |
| 2026-05-05 03:01 | -5.94748 | -37.13481 | 35016 ft | 474 kts | 143° |
| 2026-05-05 03:01 | -5.99838 | -37.09271 | 35019 ft | 474 kts | 143° |
| 2026-05-05 03:02 | -6.04933 | -37.05053 | 35023 ft | 474 kts | 142° |
| 2026-05-05 03:02 | -6.10027 | -37.00829 | 35034 ft | 474 kts | 143° |
| 2026-05-05 03:03 | -6.15094 | -36.96646 | 35029 ft | 474 kts | 143° |
| 2026-05-05 03:03 | -6.20191 | -36.92426 | 35026 ft | 474 kts | 143° |
| 2026-05-05 03:04 | -6.25294 | -36.88197 | 35022 ft | 474 kts | 143° |
| 2026-05-05 03:04 | -6.30390 | -36.83975 | 35026 ft | 475 kts | 143° |
| 2026-05-05 03:05 | -6.35468 | -36.79775 | 35032 ft | 475 kts | 143° |
| 2026-05-05 03:05 | -6.40574 | -36.75552 | 35032 ft | 475 kts | 143° |
| 2026-05-05 03:06 | -6.45677 | -36.71322 | 35037 ft | 475 kts | 143° |
| 2026-05-05 03:06 | -6.50784 | -36.67081 | 35035 ft | 475 kts | 143° |
| 2026-05-05 03:07 | -6.55853 | -36.62872 | 35040 ft | 475 kts | 143° |
| 2026-05-05 03:07 | -6.60970 | -36.58638 | 35045 ft | 475 kts | 143° |
| 2026-05-05 03:08 | -6.66072 | -36.54406 | 35048 ft | 475 kts | 143° |
| 2026-05-05 03:08 | -6.71139 | -36.50195 | 35048 ft | 475 kts | 143° |
| 2026-05-05 03:09 | -6.76248 | -36.45947 | 35056 ft | 475 kts | 143° |
| 2026-05-05 03:09 | -6.81351 | -36.41715 | 35059 ft | 475 kts | 143° |
| 2026-05-05 03:10 | -6.86461 | -36.37478 | 35069 ft | 475 kts | 143° |
| 2026-05-05 03:10 | -6.91555 | -36.33236 | 35067 ft | 475 kts | 142° |
| 2026-05-05 03:11 | -6.96595 | -36.28979 | 35066 ft | 475 kts | 142° |
| 2026-05-05 03:11 | -7.01647 | -36.24682 | 35063 ft | 475 kts | 142° |
| 2026-05-05 03:12 | -7.06714 | -36.20404 | 35061 ft | 475 kts | 142° |
| 2026-05-05 03:12 | -7.11794 | -36.16126 | 35079 ft | 476 kts | 142° |
| 2026-05-05 03:13 | -7.16832 | -36.11864 | 35096 ft | 476 kts | 142° |
| 2026-05-05 03:13 | -7.21900 | -36.07563 | 35107 ft | 476 kts | 142° |
| 2026-05-05 03:14 | -7.26974 | -36.03282 | 35121 ft | 476 kts | 142° |
| 2026-05-05 03:14 | -7.32056 | -35.98986 | 35131 ft | 476 kts | 142° |
| 2026-05-05 03:15 | -7.37102 | -35.94713 | 35126 ft | 476 kts | 142° |
| 2026-05-05 03:15 | -7.42184 | -35.90411 | 35116 ft | 476 kts | 142° |
| 2026-05-05 03:16 | -7.47269 | -35.86104 | 35098 ft | 476 kts | 142° |
| 2026-05-05 03:16 | -7.52344 | -35.81806 | 35080 ft | 477 kts | 142° |
| 2026-05-05 03:17 | -7.57348 | -35.77565 | 34757 ft | 464 kts | 142° |
| 2026-05-05 03:17 | -7.59835 | -35.75456 | 33829 ft | 470 kts | 142° |
| 2026-05-05 03:17 | -7.62353 | -35.73321 | 32948 ft | 473 kts | 142° |
| 2026-05-05 03:17 | -7.64841 | -35.71210 | 32281 ft | 470 kts | 141° |
| 2026-05-05 03:18 | -7.67351 | -35.69080 | 31366 ft | 474 kts | 141° |
| 2026-05-05 03:18 | -7.69858 | -35.66883 | 30432 ft | 478 kts | 135° |
| 2026-05-05 03:18 | -7.71766 | -35.64145 | 29424 ft | 481 kts | 115° |
| 2026-05-05 03:18 | -7.72675 | -35.60897 | 28244 ft | 484 kts | 96° |
| 2026-05-05 03:19 | -7.72500 | -35.54226 | 25917 ft | 471 kts | 83° |
| 2026-05-05 03:19 | -7.72044 | -35.50994 | 24828 ft | 461 kts | 81° |
| 2026-05-05 03:19 | -7.71545 | -35.47835 | 23777 ft | 452 kts | 81° |
| 2026-05-05 03:20 | -7.71096 | -35.44728 | 22588 ft | 446 kts | 82° |
| 2026-05-05 03:20 | -7.70724 | -35.41598 | 21517 ft | 449 kts | 84° |
| 2026-05-05 03:20 | -7.70437 | -35.38515 | 21268 ft | 432 kts | 85° |
| 2026-05-05 03:20 | -7.70400 | -35.35570 | 21124 ft | 415 kts | 96° |
| 2026-05-05 03:21 | -7.71075 | -35.32781 | 20750 ft | 407 kts | 110° |
| 2026-05-05 03:21 | -7.72400 | -35.30318 | 20284 ft | 403 kts | 125° |
| 2026-05-05 03:21 | -7.74314 | -35.28257 | 19824 ft | 402 kts | 139° |
| 2026-05-05 03:21 | -7.76672 | -35.26752 | 19346 ft | 401 kts | 154° |
| 2026-05-05 03:22 | -7.79339 | -35.25916 | 18855 ft | 402 kts | 169° |
| 2026-05-05 03:22 | -7.82127 | -35.25819 | 18384 ft | 402 kts | 184° |
| 2026-05-05 03:22 | -7.84810 | -35.26445 | 17853 ft | 402 kts | 199° |
| 2026-05-05 03:22 | -7.87247 | -35.27742 | 17331 ft | 401 kts | 214° |
| 2026-05-05 03:23 | -7.89285 | -35.29630 | 16820 ft | 399 kts | 229° |
| 2026-05-05 03:23 | -7.90780 | -35.31980 | 16305 ft | 397 kts | 244° |
| 2026-05-05 03:23 | -7.91627 | -35.34622 | 15799 ft | 395 kts | 258° |
| 2026-05-05 03:23 | -7.92078 | -35.37349 | 15270 ft | 392 kts | 262° |
| 2026-05-05 03:24 | -7.92280 | -35.39150 | 14941 ft | 390 kts | 264° |
| 2026-05-05 03:24 | -7.92556 | -35.42785 | 14273 ft | 386 kts | 266° |
| 2026-05-05 03:24 | -7.92664 | -35.44572 | 13947 ft | 384 kts | 266° |
| 2026-05-05 03:24 | -7.92829 | -35.47253 | 13405 ft | 381 kts | 265° |
| 2026-05-05 03:25 | -7.92786 | -35.49903 | 12848 ft | 378 kts | 277° |
| 2026-05-05 03:25 | -7.92153 | -35.52463 | 12284 ft | 376 kts | 291° |
| 2026-05-05 03:25 | -7.90948 | -35.54789 | 11719 ft | 373 kts | 305° |
| 2026-05-05 03:25 | -7.89242 | -35.56733 | 11207 ft | 370 kts | 320° |
| 2026-05-05 03:26 | -7.87121 | -35.58184 | 11033 ft | 369 kts | 334° |
| 2026-05-05 03:26 | -7.84732 | -35.59093 | 11057 ft | 367 kts | 348° |
| 2026-05-05 03:26 | -7.82237 | -35.59422 | 11055 ft | 365 kts | 1° |
| 2026-05-05 03:26 | -7.79727 | -35.59150 | 11059 ft | 362 kts | 15° |
| 2026-05-05 03:27 | -7.77373 | -35.58291 | 11051 ft | 359 kts | 29° |
| 2026-05-05 03:27 | -7.75329 | -35.56936 | 11051 ft | 341 kts | 42° |
| 2026-05-05 03:27 | -7.73740 | -35.55274 | 11056 ft | 319 kts | 54° |
| 2026-05-05 03:27 | -7.72595 | -35.53437 | 11053 ft | 301 kts | 66° |
| 2026-05-05 03:28 | -7.71870 | -35.51524 | 11049 ft | 283 kts | 76° |
| 2026-05-05 03:28 | -7.71588 | -35.50260 | 11049 ft | 273 kts | 81° |
| 2026-05-05 03:28 | -7.71383 | -35.48886 | 11048 ft | 262 kts | 84° |
| 2026-05-05 03:28 | -7.71205 | -35.47105 | 11048 ft | 248 kts | 86° |
| 2026-05-05 03:29 | -7.71073 | -35.45437 | 11049 ft | 235 kts | 87° |
| 2026-05-05 03:29 | -7.70953 | -35.43814 | 11045 ft | 230 kts | 87° |
| 2026-05-05 03:29 | -7.70831 | -35.42206 | 11045 ft | 229 kts | 86° |
| 2026-05-05 03:29 | -7.70696 | -35.40522 | 11018 ft | 260 kts | 86° |
| 2026-05-05 03:30 | -7.70535 | -35.38565 | 10967 ft | 299 kts | 86° |
| 2026-05-05 03:30 | -7.70350 | -35.36351 | 10896 ft | 333 kts | 86° |
| 2026-05-05 03:30 | -7.70153 | -35.34066 | 10740 ft | 325 kts | 86° |
| 2026-05-05 03:30 | -7.69945 | -35.31715 | 10502 ft | 343 kts | 86° |
| 2026-05-05 03:31 | -7.69734 | -35.29358 | 10271 ft | 330 kts | 86° |
| 2026-05-05 03:31 | -7.69534 | -35.27101 | 10043 ft | 318 kts | 86° |
| 2026-05-05 03:31 | -7.69343 | -35.24915 | 9896 ft | 306 kts | 86° |
| 2026-05-05 03:31 | -7.69161 | -35.22825 | 9771 ft | 293 kts | 86° |
| 2026-05-05 03:32 | -7.68985 | -35.20815 | 9643 ft | 284 kts | 86° |
| 2026-05-05 03:32 | -7.68813 | -35.18863 | 9518 ft | 282 kts | 86° |
| 2026-05-05 03:32 | -7.68643 | -35.16909 | 9392 ft | 281 kts | 86° |
| 2026-05-05 03:32 | -7.68474 | -35.14950 | 9267 ft | 280 kts | 86° |
| 2026-05-05 03:33 | -7.68308 | -35.12994 | 9133 ft | 280 kts | 86° |
| 2026-05-05 03:33 | -7.68143 | -35.11040 | 9007 ft | 279 kts | 87° |
| 2026-05-05 03:33 | -7.68270 | -35.09101 | 8882 ft | 277 kts | 106° |
| 2026-05-05 03:33 | -7.69120 | -35.07368 | 8582 ft | 278 kts | 128° |
| 2026-05-05 03:34 | -7.70610 | -35.06127 | 8143 ft | 279 kts | 152° |
| 2026-05-05 03:34 | -7.72411 | -35.05455 | 7665 ft | 281 kts | 161° |
| 2026-05-05 03:34 | -7.74261 | -35.04864 | 7329 ft | 275 kts | 161° |
| 2026-05-05 03:34 | -7.76071 | -35.04294 | 6772 ft | 271 kts | 161° |
| 2026-05-05 03:35 | -7.77859 | -35.03737 | 6172 ft | 267 kts | 162° |
| 2026-05-05 03:35 | -7.79626 | -35.03195 | 5549 ft | 264 kts | 161° |
| 2026-05-05 03:35 | -7.81371 | -35.02627 | 4880 ft | 263 kts | 161° |
| 2026-05-05 03:35 | -7.83101 | -35.02054 | 4229 ft | 262 kts | 161° |
| 2026-05-05 03:36 | -7.84798 | -35.01495 | 4076 ft | 249 kts | 161° |
| 2026-05-05 03:36 | -7.86398 | -35.00968 | 3961 ft | 235 kts | 161° |
| 2026-05-05 03:36 | -7.87886 | -35.00478 | 3866 ft | 222 kts | 161° |
| 2026-05-05 03:36 | -7.89315 | -35.00008 | 3772 ft | 210 kts | 161° |
| 2026-05-05 03:37 | -7.90664 | -34.99563 | 3689 ft | 199 kts | 161° |
| 2026-05-05 03:37 | -7.91948 | -34.99140 | 3593 ft | 188 kts | 161° |
| 2026-05-05 03:37 | -7.93160 | -34.98741 | 3521 ft | 179 kts | 161° |
| 2026-05-05 03:37 | -7.94340 | -34.98351 | 3417 ft | 177 kts | 160° |
| 2026-05-05 03:38 | -7.95509 | -34.97966 | 3234 ft | 176 kts | 161° |
| 2026-05-05 03:38 | -7.96664 | -34.97585 | 3043 ft | 172 kts | 161° |
| 2026-05-05 03:38 | -7.97773 | -34.97220 | 2804 ft | 168 kts | 161° |
| 2026-05-05 03:38 | -7.98880 | -34.96855 | 2591 ft | 163 kts | 160° |
| 2026-05-05 03:39 | -7.99930 | -34.96509 | 2389 ft | 159 kts | 160° |
| 2026-05-05 03:39 | -8.00948 | -34.96174 | 2188 ft | 150 kts | 161° |
| 2026-05-05 03:39 | -8.01912 | -34.95856 | 2003 ft | 142 kts | 161° |
| 2026-05-05 03:39 | -8.02828 | -34.95554 | 1822 ft | 135 kts | 162° |
| 2026-05-05 03:40 | -8.03713 | -34.95262 | 1659 ft | 132 kts | 161° |
| 2026-05-05 03:40 | -8.04587 | -34.94974 | 1471 ft | 132 kts | 163° |
| 2026-05-05 03:40 | -8.05459 | -34.94686 | 1308 ft | 131 kts | 162° |
| 2026-05-05 03:40 | -8.06324 | -34.94401 | 1141 ft | 130 kts | 162° |
| 2026-05-05 03:41 | -8.07187 | -34.94117 | 970 ft | 130 kts | 163° |
| 2026-05-05 03:41 | -8.08037 | -34.93836 | 804 ft | 130 kts | 162° |
| 2026-05-05 03:41 | -8.08907 | -34.93549 | 636 ft | 133 kts | 162° |
| 2026-05-05 03:41 | -8.09788 | -34.93259 | 439 ft | 133 kts | 163° |
| 2026-05-05 03:42 | -8.10677 | -34.92965 | 269 ft | 136 kts | 162° |
| 2026-05-05 03:42 | -8.11579 | -34.92670 | 73 ft | 136 kts | 162° |
| 2026-05-05 03:42 | -8.12404 | -34.92395 | 48 ft | 107 kts | 162° |
| 2026-05-05 03:42 | -8.12949 | -34.92213 | 48 ft | 61 kts | 162° |
| 2026-05-05 03:43 | -8.13240 | -34.92089 | 43 ft | 33 kts | 126° |
| 2026-05-05 03:43 | -8.13293 | -34.91987 | 43 ft | 9 kts | 65° |
| 2026-05-05 03:43 | -8.13245 | -34.91965 | 44 ft | 7 kts | 355° |
| 2026-05-05 03:43 | -8.13213 | -34.91975 | 44 ft | 1 kts | 340° |
| 2026-05-05 03:44 | -8.13209 | -34.91977 | 44 ft | 0 kts | 340° |
| 2026-05-05 03:44 | -8.13192 | -34.91983 | 44 ft | 6 kts | 340° |
| 2026-05-05 03:44 | -8.13138 | -34.92002 | 45 ft | 9 kts | 342° |
| 2026-05-05 03:44 | -8.13101 | -34.92013 | 46 ft | 0 kts | 342° |
| 2026-05-05 03:45 | -8.13099 | -34.92012 | 46 ft | 0 kts | 9° |
| 2026-05-05 03:45 | -8.13098 | -34.92006 | 46 ft | 1 kts | 70° |
| 2026-05-05 03:45 | -8.13102 | -34.91966 | 46 ft | 7 kts | 80° |
| 2026-05-05 03:46 | -8.13090 | -34.91933 | 44 ft | 4 kts | 71° |
| 2026-05-05 03:46 | -8.13088 | -34.91926 | 43 ft | 0 kts | 71° |